createdAt,value
2018-12-21T00:00:23.691Z,7.00
2018-12-21T00:03:01.080Z,7.10
2018-12-21T00:11:54.160Z,7.00
2018-12-21T00:14:34.209Z,7.00
2018-12-21T00:17:20.569Z,7.00
2018-12-21T00:20:04.960Z,7.00
2018-12-21T00:22:51.230Z,7.00
2018-12-21T00:25:37.968Z,7.00
2018-12-21T00:28:22.409Z,7.00
2018-12-21T00:33:57.568Z,7.00
2018-12-21T00:36:43.484Z,7.00
2018-12-21T00:39:26.850Z,7.00
2018-12-21T00:42:13.546Z,7.00
2018-12-21T00:44:53.280Z,7.00
2018-12-21T00:47:37.043Z,7.00
2018-12-21T00:50:23.517Z,6.90
2018-12-21T00:53:10.491Z,7.00
2018-12-21T00:55:57.501Z,7.00
2018-12-21T00:58:44.413Z,7.00
2018-12-21T01:01:31.417Z,6.90
2018-12-21T01:04:18.336Z,6.90
2018-12-21T01:09:55.534Z,6.90
2018-12-21T01:12:40.252Z,6.90
2018-12-21T01:15:28.002Z,6.90
2018-12-21T01:18:12.294Z,6.90
2018-12-21T01:21:02.196Z,7.00
2018-12-21T01:23:40.487Z,7.00
2018-12-21T01:26:27.492Z,7.00
2018-12-21T01:29:14.690Z,7.00
2018-12-21T01:35:04.116Z,7.00
2018-12-21T01:37:50.994Z,7.00
2018-12-21T01:40:35.907Z,7.00
2018-12-21T01:43:22.995Z,7.00
2018-12-21T01:46:03.914Z,7.00
2018-12-21T01:48:44.529Z,7.00
2018-12-21T01:51:31.296Z,7.00
2018-12-21T01:54:17.859Z,7.10
2018-12-21T01:57:04.796Z,7.10
2018-12-21T01:59:42.332Z,7.10
2018-12-21T02:02:26.837Z,7.10
2018-12-21T02:05:11.395Z,7.10
2018-12-21T02:07:52.872Z,7.10
2018-12-21T02:10:37.536Z,7.10
2018-12-21T02:28:26.575Z,7.10
2018-12-21T02:31:11.266Z,7.10
2018-12-21T02:33:53.976Z,7.10
2018-12-21T02:36:35.890Z,7.10
2018-12-21T02:39:22.269Z,7.10
2018-12-21T02:41:49.805Z,7.10
2018-12-21T02:44:36.314Z,7.10
2018-12-21T02:47:23.166Z,7.10
2018-12-21T02:50:07.332Z,7.10
2018-12-21T02:52:54.828Z,7.10
2018-12-21T02:55:41.792Z,7.10
2018-12-21T02:58:09.299Z,7.10
2018-12-21T03:00:36.989Z,7.10
2018-12-21T03:03:04.624Z,7.10
2018-12-21T03:05:56.115Z,7.10
2018-12-21T03:08:43.074Z,7.10
2018-12-21T03:11:18.969Z,7.00
2018-12-21T03:14:05.659Z,7.00
2018-12-21T03:16:50.701Z,7.10
2018-12-21T03:19:31.020Z,7.00
2018-12-21T03:22:17.307Z,7.10
2018-12-21T03:25:01.513Z,7.00
2018-12-21T03:27:48.620Z,7.00
2018-12-21T03:30:32.726Z,7.10
2018-12-21T03:33:23.958Z,7.10
2018-12-21T03:36:10.752Z,7.10
2018-12-21T03:38:57.585Z,7.10
2018-12-21T03:41:37.741Z,7.10
2018-12-21T03:44:24.380Z,7.10
2018-12-21T03:46:51.938Z,7.10
2018-12-21T03:49:19.530Z,7.10
2018-12-21T03:51:47.124Z,7.10
2018-12-21T03:54:37.545Z,7.10
2018-12-21T03:57:25.486Z,7.10
2018-12-21T04:00:12.297Z,7.20
2018-12-21T04:02:59.120Z,7.20
2018-12-21T04:05:26.616Z,7.20
2018-12-21T04:07:54.144Z,7.10
2018-12-21T04:10:21.636Z,7.20
2018-12-21T04:12:49.148Z,7.20
2018-12-21T04:15:33.832Z,7.20
2018-12-21T04:21:18.581Z,7.30
2018-12-21T04:24:02.640Z,7.30
2018-12-21T04:26:48.981Z,7.30
2018-12-21T04:29:35.901Z,7.30
2018-12-21T04:32:22.945Z,7.40
2018-12-21T04:35:07.406Z,7.40
2018-12-21T04:37:35.031Z,7.40
2018-12-21T04:40:19.594Z,7.40
2018-12-21T04:43:03.575Z,7.40
2018-12-21T04:45:50.027Z,7.30
2018-12-21T04:48:37.253Z,7.30
2018-12-21T04:51:24.160Z,7.30
2018-12-21T04:54:08.300Z,7.20
2018-12-21T04:56:35.828Z,7.20
2018-12-21T04:59:22.288Z,7.10
2018-12-21T05:01:49.812Z,7.10
2018-12-21T05:04:20.284Z,7.10
2018-12-21T05:09:56.220Z,7.00
2018-12-21T05:12:43.256Z,7.00
2018-12-21T05:15:27.992Z,7.00
2018-12-21T05:18:08.300Z,7.00
2018-12-21T05:20:35.829Z,7.00
2018-12-21T05:23:03.345Z,6.90
2018-12-21T05:25:51.894Z,6.90
2018-12-21T05:28:19.567Z,6.90
2018-12-21T05:30:47.169Z,6.90
2018-12-21T05:33:15.745Z,6.90
2018-12-21T05:36:02.443Z,6.90
2018-12-21T05:38:29.987Z,6.90
2018-12-21T05:40:57.532Z,6.90
2018-12-21T05:43:25.188Z,6.90
2018-12-21T05:46:09.867Z,6.90
2018-12-21T05:48:37.412Z,6.90
2018-12-21T05:51:04.979Z,6.90
2018-12-21T05:53:32.524Z,6.90
2018-12-21T05:56:17.390Z,6.90
2018-12-21T05:58:44.924Z,6.90
2018-12-21T06:01:12.419Z,7.00
2018-12-21T06:03:39.957Z,7.00
2018-12-21T06:06:27.213Z,7.00
2018-12-21T06:08:55.834Z,7.00
2018-12-21T06:11:23.527Z,7.00
2018-12-21T06:13:51.217Z,7.00
2018-12-21T06:16:38.365Z,7.00
2018-12-21T06:19:22.877Z,7.00
2018-12-21T06:22:07.044Z,7.00
2018-12-21T06:24:51.152Z,7.00
2018-12-21T06:27:35.077Z,7.00
2018-12-21T06:30:14.967Z,7.10
2018-12-21T06:32:42.486Z,7.10
2018-12-21T06:35:28.964Z,7.20
2018-12-21T06:38:15.775Z,7.20
2018-12-21T06:41:02.457Z,7.30
2018-12-21T06:43:45.054Z,7.40
2018-12-21T06:46:31.743Z,7.40
2018-12-21T06:49:15.877Z,7.40
2018-12-21T06:51:59.859Z,7.40
2018-12-21T06:54:48.577Z,7.40
2018-12-21T06:57:24.205Z,7.40
2018-12-21T07:00:08.056Z,7.40
2018-12-21T07:02:52.095Z,7.40
2018-12-21T07:05:42.619Z,7.40
2018-12-21T07:08:27.104Z,7.40
2018-12-21T07:11:14.137Z,7.50
2018-12-21T07:14:01.809Z,7.50
2018-12-21T07:16:46.180Z,7.50
2018-12-21T07:19:30.483Z,7.50
2018-12-21T07:22:13.228Z,7.50
2018-12-21T07:24:59.693Z,7.50
2018-12-21T07:30:49.334Z,7.50
2018-12-21T07:33:33.920Z,7.50
2018-12-21T07:54:19.627Z,7.60
2018-12-21T08:02:56.860Z,7.60
2018-12-21T08:05:27.436Z,7.60
2018-12-21T08:11:18.563Z,7.60
2018-12-21T08:13:54.704Z,7.60
2018-12-21T08:16:39.303Z,7.60
2018-12-21T08:22:29.685Z,7.70
2018-12-21T08:28:16.884Z,7.70
2018-12-21T08:46:18.880Z,7.80
2018-12-21T08:49:05.778Z,7.80
2018-12-21T08:51:50.236Z,7.80
2018-12-21T08:54:41.318Z,7.80
2018-12-21T08:57:08.942Z,7.90
2018-12-21T08:59:36.562Z,7.90
2018-12-21T09:02:20.938Z,7.90
2018-12-21T09:05:05.001Z,7.90
2018-12-21T09:07:32.511Z,7.90
2018-12-21T09:10:19.657Z,7.90
2018-12-21T09:12:47.322Z,8.00
2018-12-21T09:15:32.142Z,7.90
2018-12-21T09:18:16.324Z,7.90
2018-12-21T09:20:54.492Z,8.00
2018-12-21T09:23:39.200Z,8.00
2018-12-21T09:26:25.887Z,8.00
2018-12-21T09:28:53.538Z,8.00
2018-12-21T09:31:38.011Z,8.00
2018-12-21T09:37:24.811Z,8.10
2018-12-21T09:40:09.100Z,8.10
2018-12-21T09:42:55.456Z,8.10
2018-12-21T09:45:42.589Z,8.10
2018-12-21T09:48:20.201Z,8.20
2018-12-21T09:51:07.544Z,8.20
2018-12-21T09:53:51.917Z,8.20
2018-12-21T09:56:36.168Z,8.20
2018-12-21T09:59:16.323Z,8.20
2018-12-21T10:02:02.741Z,8.30
2018-12-21T10:04:49.585Z,8.20
2018-12-21T10:07:36.604Z,8.30
2018-12-21T10:10:23.777Z,8.30
2018-12-21T10:13:10.681Z,8.40
2018-12-21T10:15:57.517Z,8.40
2018-12-21T10:18:32.975Z,8.40
2018-12-21T10:21:17.688Z,8.40
2018-12-21T10:24:04.113Z,8.40
2018-12-21T10:26:46.501Z,8.40
2018-12-21T10:29:30.584Z,8.40
2018-12-21T10:32:14.572Z,8.40
2018-12-21T10:34:58.383Z,8.40
2018-12-21T10:37:43.096Z,8.40
2018-12-21T10:40:26.982Z,8.50
2018-12-21T10:43:11.712Z,8.50
2018-12-21T10:45:46.102Z,8.50
2018-12-21T10:48:13.632Z,8.50
2018-12-21T10:50:57.968Z,8.40
2018-12-21T10:53:46.431Z,8.40
2018-12-21T10:56:28.357Z,8.40
2018-12-21T10:59:21.043Z,8.40
2018-12-21T11:02:04.093Z,8.40
2018-12-21T11:04:50.894Z,8.40
2018-12-21T11:07:38.796Z,8.40
2018-12-21T11:10:23.336Z,8.40
2018-12-21T11:13:07.468Z,8.40
2018-12-21T11:15:44.768Z,8.30
2018-12-21T11:18:12.317Z,8.30
2018-12-21T11:20:39.816Z,8.40
2018-12-21T11:23:27.150Z,8.30
2018-12-21T11:26:11.540Z,8.40
2018-12-21T11:28:57.889Z,8.30
2018-12-21T11:31:42.473Z,8.30
2018-12-21T11:34:29.040Z,8.30
2018-12-21T11:37:15.428Z,8.30
2018-12-21T11:39:59.692Z,8.30
2018-12-21T11:42:44.086Z,8.30
2018-12-21T11:45:28.535Z,8.30
2018-12-21T11:48:15.057Z,8.30
2018-12-21T11:51:02.027Z,8.40
2018-12-21T11:53:48.807Z,8.40
2018-12-21T11:56:32.629Z,8.40
2018-12-21T11:59:16.712Z,8.40
2018-12-21T12:02:00.699Z,8.40
2018-12-21T12:04:42.569Z,8.40
2018-12-21T12:07:10.089Z,8.40
2018-12-21T12:09:37.601Z,8.40
2018-12-21T12:12:24.118Z,8.40
2018-12-21T12:15:11.138Z,8.40
2018-12-21T12:17:51.748Z,8.40
2018-12-21T12:20:38.173Z,8.40
2018-12-21T12:23:25.331Z,8.40
2018-12-21T12:26:05.490Z,8.40
2018-12-21T12:28:52.897Z,8.40
2018-12-21T12:31:43.603Z,8.40
2018-12-21T12:34:24.180Z,8.40
2018-12-21T12:37:08.709Z,8.40
2018-12-21T12:39:55.142Z,8.40
2018-12-21T12:42:39.376Z,8.40
2018-12-21T12:45:25.980Z,8.40
2018-12-21T12:48:10.331Z,8.50
2018-12-21T12:50:57.005Z,8.50
2018-12-21T12:53:43.998Z,8.50
2018-12-21T12:56:28.363Z,8.60
2018-12-21T12:59:14.896Z,8.60
2018-12-21T13:01:55.099Z,8.60
2018-12-21T13:04:41.415Z,8.60
2018-12-21T13:07:28.312Z,8.60
2018-12-21T13:10:12.910Z,8.60
2018-12-21T13:12:57.409Z,8.60
2018-12-21T13:15:44.594Z,8.60
2018-12-21T13:18:28.380Z,8.60
2018-12-21T13:21:12.337Z,8.70
2018-12-21T13:23:58.970Z,8.70
2018-12-21T13:26:43.427Z,8.70
2018-12-21T13:29:31.339Z,8.70
2018-12-21T13:32:18.142Z,8.70
2018-12-21T13:35:05.015Z,8.70
2018-12-21T13:37:39.840Z,8.80
2018-12-21T13:40:23.852Z,8.80
2018-12-21T13:42:59.341Z,8.80
2018-12-21T13:45:43.716Z,8.80
2018-12-21T13:48:18.158Z,8.80
2018-12-21T13:51:05.177Z,8.80
2018-12-21T13:53:56.504Z,8.80
2018-12-21T13:59:32.083Z,8.90
2018-12-21T14:02:12.189Z,8.90
2018-12-21T14:04:56.873Z,8.80
2018-12-21T14:07:40.843Z,8.80
2018-12-21T14:10:25.277Z,8.90
2018-12-21T14:13:09.647Z,8.90
2018-12-21T14:15:53.461Z,8.90
2018-12-21T14:18:35.386Z,8.90
2018-12-21T14:21:23.856Z,8.90
2018-12-21T14:24:08.259Z,8.90
2018-12-21T14:26:52.433Z,8.90
2018-12-21T14:29:38.885Z,8.90
2018-12-21T14:32:23.040Z,8.90
2018-12-21T14:35:07.049Z,9.00
2018-12-21T14:37:53.408Z,9.00
2018-12-21T14:43:30.913Z,9.00
2018-12-21T14:46:13.096Z,9.00
2018-12-21T14:48:56.956Z,9.00
2018-12-21T14:51:38.965Z,9.00
2018-12-21T14:54:21.095Z,9.10
2018-12-21T14:57:07.400Z,9.10
2018-12-21T14:59:52.186Z,9.10
2018-12-21T15:02:36.899Z,9.20
2018-12-21T15:05:20.812Z,9.20
2018-12-21T15:07:56.156Z,9.30
2018-12-21T15:10:38.175Z,9.30
2018-12-21T15:13:22.428Z,9.30
2018-12-21T15:15:56.750Z,9.30
2018-12-21T15:18:40.658Z,9.30
2018-12-21T15:21:24.973Z,9.30
2018-12-21T15:24:08.779Z,9.30
2018-12-21T15:26:48.964Z,9.30
2018-12-21T15:29:36.665Z,9.30
2018-12-21T15:32:20.658Z,9.30
2018-12-21T15:35:07.475Z,9.30
2018-12-21T15:37:55.365Z,9.30
2018-12-21T15:40:35.761Z,9.30
2018-12-21T15:43:09.955Z,9.30
2018-12-21T15:45:53.776Z,9.30
2018-12-21T15:48:37.964Z,9.30
2018-12-21T15:51:22.020Z,9.30
2018-12-21T15:54:08.585Z,9.40
2018-12-21T15:56:42.412Z,9.40
2018-12-21T15:59:13.712Z,9.40
2018-12-21T16:01:47.464Z,9.50
2018-12-21T16:04:23.219Z,9.50
2018-12-21T16:07:07.894Z,9.50
2018-12-21T16:09:51.978Z,9.50
2018-12-21T16:15:28.493Z,9.50
2018-12-21T16:18:15.366Z,9.50
2018-12-21T16:20:59.375Z,9.50
2018-12-21T16:23:36.890Z,9.40
2018-12-21T16:26:21.491Z,9.50
2018-12-21T16:29:05.544Z,9.50
2018-12-21T16:31:49.622Z,9.50
2018-12-21T16:34:33.790Z,9.50
2018-12-21T16:37:18.028Z,9.60
2018-12-21T16:39:53.832Z,9.60
2018-12-21T16:42:38.492Z,9.60
2018-12-21T16:45:22.360Z,9.60
2018-12-21T16:47:51.124Z,9.60
2018-12-21T16:50:35.680Z,9.60
2018-12-21T16:53:19.949Z,9.60
2018-12-21T16:56:00.052Z,9.70
2018-12-21T16:58:46.644Z,9.80
2018-12-21T17:01:31.116Z,9.80
2018-12-21T17:04:17.922Z,9.80
2018-12-21T17:10:07.696Z,9.90
2018-12-21T17:15:55.099Z,10.00
2018-12-21T17:18:39.035Z,10.00
2018-12-21T17:27:29.375Z,10.00
2018-12-21T17:30:15.811Z,10.00
2018-12-21T17:32:56.404Z,10.00
2018-12-21T17:35:41.141Z,10.00
2018-12-21T17:38:28.115Z,10.00
2018-12-21T17:41:12.104Z,10.00
2018-12-21T17:46:49.148Z,10.00
2018-12-21T17:49:33.229Z,10.10
2018-12-21T17:52:07.643Z,10.10
2018-12-21T17:54:41.760Z,10.10
2018-12-21T17:57:15.948Z,10.10
2018-12-21T17:59:50.041Z,10.20
2018-12-21T18:02:28.157Z,10.20
2018-12-21T18:05:15.219Z,10.20
2018-12-21T18:07:49.146Z,10.20
2018-12-21T18:10:33.833Z,10.20
2018-12-21T18:13:17.832Z,10.20
2018-12-21T18:16:01.739Z,10.20
2018-12-21T18:18:48.381Z,10.20
2018-12-21T18:21:32.768Z,10.20
2018-12-21T18:24:10.152Z,10.20
2018-12-21T18:26:43.445Z,10.20
2018-12-21T18:29:21.338Z,10.20
2018-12-21T18:32:06.013Z,10.10
2018-12-21T18:34:43.448Z,10.20
2018-12-21T18:37:22.453Z,10.20
2018-12-21T18:39:54.113Z,10.20
2018-12-21T18:42:37.434Z,10.10
2018-12-21T18:45:14.862Z,10.20
2018-12-21T18:47:51.231Z,10.20
2018-12-21T18:50:28.796Z,10.20
2018-12-21T18:53:15.092Z,10.20
2018-12-21T18:55:48.875Z,10.20
2018-12-21T18:58:22.855Z,10.20
2018-12-21T19:00:56.855Z,10.10
2018-12-21T19:03:30.894Z,10.20
2018-12-21T19:06:08.630Z,10.20
2018-12-21T19:08:40.104Z,10.20
2018-12-21T19:11:14.728Z,10.20
2018-12-21T19:13:59.612Z,10.10
2018-12-21T19:16:33.507Z,10.10
2018-12-21T19:19:08.315Z,10.10
2018-12-21T19:21:52.877Z,10.10
2018-12-21T19:24:36.943Z,10.10
2018-12-21T19:27:11.236Z,10.10
2018-12-21T19:29:41.797Z,10.10
2018-12-21T19:32:26.370Z,10.10
2018-12-21T19:34:57.064Z,10.10
2018-12-21T19:37:37.673Z,10.20
2018-12-21T19:40:11.257Z,10.20
2018-12-21T19:42:45.897Z,10.10
2018-12-21T19:45:29.895Z,10.10
2018-12-21T19:48:07.081Z,10.20
2018-12-21T19:50:53.355Z,10.20
2018-12-21T19:53:40.402Z,10.20
2018-12-21T19:56:24.952Z,10.20
2018-12-21T19:59:09.013Z,10.20
2018-12-21T20:01:46.261Z,10.30
2018-12-21T20:04:20.131Z,10.30
2018-12-21T20:06:54.409Z,10.30
2018-12-21T20:09:36.910Z,10.20
2018-12-21T20:12:21.000Z,10.30
2018-12-21T20:14:58.205Z,10.30
2018-12-21T20:17:45.417Z,10.30
2018-12-21T20:20:23.376Z,10.30
2018-12-21T20:23:07.243Z,10.30
2018-12-21T20:25:53.980Z,10.30
2018-12-21T20:28:31.692Z,10.30
2018-12-21T20:31:17.630Z,10.30
2018-12-21T20:33:49.356Z,10.30
2018-12-21T20:36:36.325Z,10.30
2018-12-21T20:39:12.354Z,10.30
2018-12-21T20:41:59.214Z,10.30
2018-12-21T20:44:33.403Z,10.30
2018-12-21T20:47:13.449Z,10.30
2018-12-21T20:49:51.412Z,10.30
2018-12-21T20:52:32.152Z,10.30
2018-12-21T21:07:10.609Z,10.30
2018-12-21T21:09:46.625Z,10.30
2018-12-21T21:15:27.087Z,10.20
2018-12-21T21:18:01.471Z,10.20
2018-12-21T21:20:35.180Z,10.20
2018-12-21T21:23:13.272Z,10.10
2018-12-21T21:25:44.796Z,10.10
2018-12-21T21:28:24.813Z,10.10
2018-12-21T21:31:09.308Z,10.00
2018-12-21T21:33:56.209Z,10.10
2018-12-21T21:39:46.070Z,10.10
2018-12-21T21:42:23.909Z,10.10
2018-12-21T21:45:08.453Z,10.10
2018-12-21T21:47:55.024Z,10.10
2018-12-21T21:50:39.469Z,10.10
2018-12-21T21:53:23.233Z,10.10
2018-12-21T21:56:07.588Z,10.10
2018-12-21T21:58:51.704Z,10.20
2018-12-21T22:01:35.704Z,10.20
2018-12-21T22:04:19.666Z,10.20
2018-12-21T22:07:06.307Z,10.20
2018-12-21T22:09:40.105Z,10.30
2018-12-21T22:12:23.880Z,10.30
2018-12-21T22:15:08.435Z,10.20
2018-12-21T22:17:52.613Z,10.30
2018-12-21T22:20:36.759Z,10.30
2018-12-21T22:23:20.542Z,10.30
2018-12-21T22:26:04.397Z,10.30
2018-12-21T22:28:48.503Z,10.30
2018-12-21T22:31:35.089Z,10.30
2018-12-21T22:34:18.873Z,10.30
2018-12-21T22:37:05.171Z,10.40
2018-12-21T22:39:52.274Z,10.40
2018-12-21T22:42:40.829Z,10.40
2018-12-21T22:48:22.782Z,10.40
2018-12-21T22:51:09.657Z,10.40
2018-12-21T22:53:53.754Z,10.50
2018-12-21T22:56:38.092Z,10.50
2018-12-21T22:59:25.234Z,10.50
2018-12-21T23:02:02.453Z,10.50
2018-12-21T23:04:46.919Z,10.50
2018-12-21T23:07:20.529Z,10.40
2018-12-21T23:10:04.976Z,10.40
2018-12-21T23:12:42.191Z,10.40
2018-12-21T23:15:26.670Z,10.50
2018-12-21T23:18:10.677Z,10.50
2018-12-21T23:20:57.113Z,10.50
2018-12-21T23:23:41.620Z,10.50
2018-12-21T23:26:14.809Z,10.50
2018-12-21T23:28:59.514Z,10.40
2018-12-21T23:31:43.577Z,10.40
2018-12-21T23:34:29.976Z,10.40
2018-12-21T23:37:14.255Z,10.40
2018-12-21T23:39:51.680Z,10.40
2018-12-21T23:42:25.866Z,10.30
2018-12-21T23:45:10.577Z,10.20
2018-12-21T23:47:54.676Z,10.20
2018-12-21T23:50:38.661Z,10.20
2018-12-21T23:53:22.507Z,10.30
2018-12-21T23:56:12.088Z,10.20
2018-12-21T23:58:52.659Z,10.10
